Orlando International Airport
KMCO : now visible

Airfield :











YOU CAN JOIN US ON...

 
LOGIN :

Register | Disclaimer

   EN    FR    IT 

 









Legend :    VFR   Marginal VFR   IFR   Intensive IFR   Very Intensive IFR
Visi :
Ceiling :
>= 8 km
>= 3000ft
5 to 8 km
1000 to 3000 ft
1500m to 5 km
500 to 1000 ft
800 to 1500m
200 to 500 ft
< 800m
< 200 ft
Symbols :   Thunderstorms  Fog  Heavy snow  Heavy precipitations  Wind > 20 kt







- Airport Elevation : 96 ft
- IATA code : MCO


KMCO - Orlando International

CURRENT METAR :
  • 210553Z 19003KT 10SM FEW070 23/21 A2998 RMK AO2 SLP150 T02280206 10278 20222 58006

EXPIRED METARs :
  • 210453Z 15004KT 10SM CLR 23/21 A2999 RMK AO2 SLP154 T02280206 403280211
  • 210353Z 13006KT 10SM CLR 24/21 A3000 RMK AO2 SLP157 T02390206

TAF KMCO
Valid from the 21 at 06:00 until the 22 at 12:00 UTC


210526Z 2106/2212 17002KT P6SM SKC
FM211500 15004KT P6SM SCT030
FM211800 11009KT P6SM SCT060
FM220200 16003KT P6SM SKC
KZMA FIR / North America



MET'MAP, your aeronautical weather chart ! - Copyright ORBIFLY December 2007 - Disclaimer

ORBIFLY MET'MAP TEAM :

Programming & Development : Alexandra Zaïnal
Concept & Development : Baudouin d'Aumeries
Co-Development & Prog : Marc-Olivier Méhu
Technical & hardware support : Manuel Goepfert

Contact : metmap@orbifly.com




SOURCES & CREDITS :

   NOAA       Earth
Advisory